sensor_id;sensor_type;location;lat;lon;timestamp;P1;durP1;ratioP1;P2;durP2;ratioP2
14704;SDS011;7442;50.840;3.396;2024-03-29T00:00:56;2.52;;;1.10;;
14704;SDS011;7442;50.840;3.396;2024-03-29T00:03:28;1.95;;;0.90;;
14704;SDS011;7442;50.840;3.396;2024-03-29T00:05:58;1.10;;;0.75;;
14704;SDS011;7442;50.840;3.396;2024-03-29T00:08:29;1.52;;;1.05;;
14704;SDS011;7442;50.840;3.396;2024-03-29T00:11:03;3.08;;;1.00;;
14704;SDS011;7442;50.840;3.396;2024-03-29T00:13:34;4.08;;;1.10;;
14704;SDS011;7442;50.840;3.396;2024-03-29T00:16:05;2.30;;;1.20;;
14704;SDS011;7442;50.840;3.396;2024-03-29T00:18:36;3.58;;;1.25;;
14704;SDS011;7442;50.840;3.396;2024-03-29T00:21:06;1.57;;;0.80;;
14704;SDS011;7442;50.840;3.396;2024-03-29T00:23:36;1.98;;;1.02;;
14704;SDS011;7442;50.840;3.396;2024-03-29T00:26:06;1.42;;;0.90;;
14704;SDS011;7442;50.840;3.396;2024-03-29T00:28:39;2.08;;;1.00;;
14704;SDS011;7442;50.840;3.396;2024-03-29T00:31:09;2.90;;;1.22;;
14704;SDS011;7442;50.840;3.396;2024-03-29T00:33:39;1.98;;;1.10;;
14704;SDS011;7442;50.840;3.396;2024-03-29T00:36:09;2.55;;;1.05;;
14704;SDS011;7442;50.840;3.396;2024-03-29T00:38:39;3.40;;;1.12;;
14704;SDS011;7442;50.840;3.396;2024-03-29T00:41:09;1.75;;;0.95;;
14704;SDS011;7442;50.840;3.396;2024-03-29T00:43:39;3.67;;;1.22;;
14704;SDS011;7442;50.840;3.396;2024-03-29T00:46:09;2.65;;;1.00;;
14704;SDS011;7442;50.840;3.396;2024-03-29T00:48:39;1.85;;;1.00;;
14704;SDS011;7442;50.840;3.396;2024-03-29T00:51:10;2.70;;;0.95;;
14704;SDS011;7442;50.840;3.396;2024-03-29T00:53:40;1.20;;;0.70;;
14704;SDS011;7442;50.840;3.396;2024-03-29T00:56:10;1.25;;;0.82;;
14704;SDS011;7442;50.840;3.396;2024-03-29T00:58:41;2.62;;;1.00;;
14704;SDS011;7442;50.840;3.396;2024-03-29T01:01:11;2.45;;;1.70;;
14704;SDS011;7442;50.840;3.396;2024-03-29T01:03:41;1.77;;;1.00;;
14704;SDS011;7442;50.840;3.396;2024-03-29T01:06:11;2.27;;;1.02;;
14704;SDS011;7442;50.840;3.396;2024-03-29T01:08:48;1.85;;;1.02;;
14704;SDS011;7442;50.840;3.396;2024-03-29T01:11:18;2.52;;;0.98;;
14704;SDS011;7442;50.840;3.396;2024-03-29T01:13:48;2.08;;;1.10;;
14704;SDS011;7442;50.840;3.396;2024-03-29T01:16:18;2.42;;;1.25;;
14704;SDS011;7442;50.840;3.396;2024-03-29T01:18:48;3.52;;;1.10;;
14704;SDS011;7442;50.840;3.396;2024-03-29T01:21:20;2.15;;;0.85;;
14704;SDS011;7442;50.840;3.396;2024-03-29T01:23:50;2.45;;;1.00;;
14704;SDS011;7442;50.840;3.396;2024-03-29T01:26:20;2.20;;;0.95;;
14704;SDS011;7442;50.840;3.396;2024-03-29T01:28:50;1.50;;;1.15;;
14704;SDS011;7442;50.840;3.396;2024-03-29T01:31:21;2.52;;;1.05;;
14704;SDS011;7442;50.840;3.396;2024-03-29T01:33:52;2.27;;;1.07;;
14704;SDS011;7442;50.840;3.396;2024-03-29T01:36:25;1.07;;;0.78;;
14704;SDS011;7442;50.840;3.396;2024-03-29T01:38:55;1.92;;;1.12;;
14704;SDS011;7442;50.840;3.396;2024-03-29T01:41:26;3.00;;;0.90;;
14704;SDS011;7442;50.840;3.396;2024-03-29T01:43:56;2.60;;;1.20;;
14704;SDS011;7442;50.840;3.396;2024-03-29T01:46:26;1.65;;;0.90;;
14704;SDS011;7442;50.840;3.396;2024-03-29T01:48:57;1.92;;;1.00;;
14704;SDS011;7442;50.840;3.396;2024-03-29T01:51:27;2.02;;;0.82;;
14704;SDS011;7442;50.840;3.396;2024-03-29T01:53:57;1.60;;;0.98;;
14704;SDS011;7442;50.840;3.396;2024-03-29T01:56:28;2.75;;;1.10;;
14704;SDS011;7442;50.840;3.396;2024-03-29T01:58:59;1.60;;;0.80;;
14704;SDS011;7442;50.840;3.396;2024-03-29T02:01:29;0.93;;;0.68;;
14704;SDS011;7442;50.840;3.396;2024-03-29T02:04:00;1.70;;;0.80;;
14704;SDS011;7442;50.840;3.396;2024-03-29T02:06:30;2.12;;;0.88;;
14704;SDS011;7442;50.840;3.396;2024-03-29T02:09:01;2.12;;;1.02;;
14704;SDS011;7442;50.840;3.396;2024-03-29T02:11:32;3.45;;;1.00;;
14704;SDS011;7442;50.840;3.396;2024-03-29T02:14:03;1.32;;;0.95;;
14704;SDS011;7442;50.840;3.396;2024-03-29T02:16:34;1.15;;;0.70;;
14704;SDS011;7442;50.840;3.396;2024-03-29T02:19:06;2.40;;;1.15;;
14704;SDS011;7442;50.840;3.396;2024-03-29T02:21:37;2.75;;;1.00;;
14704;SDS011;7442;50.840;3.396;2024-03-29T02:24:09;1.75;;;0.88;;
14704;SDS011;7442;50.840;3.396;2024-03-29T02:26:41;2.95;;;0.90;;
14704;SDS011;7442;50.840;3.396;2024-03-29T02:31:46;2.58;;;1.15;;
14704;SDS011;7442;50.840;3.396;2024-03-29T02:34:16;2.12;;;1.22;;
14704;SDS011;7442;50.840;3.396;2024-03-29T02:36:47;1.62;;;0.80;;
14704;SDS011;7442;50.840;3.396;2024-03-29T02:39:17;1.70;;;1.00;;
14704;SDS011;7442;50.840;3.396;2024-03-29T02:41:47;1.52;;;0.80;;
14704;SDS011;7442;50.840;3.396;2024-03-29T02:44:17;1.52;;;0.82;;
14704;SDS011;7442;50.840;3.396;2024-03-29T02:46:47;1.45;;;0.90;;
14704;SDS011;7442;50.840;3.396;2024-03-29T02:49:17;1.40;;;0.90;;
14704;SDS011;7442;50.840;3.396;2024-03-29T02:51:47;2.65;;;0.85;;
14704;SDS011;7442;50.840;3.396;2024-03-29T02:54:19;1.45;;;0.93;;
14704;SDS011;7442;50.840;3.396;2024-03-29T02:56:49;2.92;;;0.93;;
14704;SDS011;7442;50.840;3.396;2024-03-29T02:59:19;1.05;;;0.95;;
14704;SDS011;7442;50.840;3.396;2024-03-29T03:01:49;2.60;;;0.98;;
14704;SDS011;7442;50.840;3.396;2024-03-29T03:04:19;1.05;;;0.70;;
14704;SDS011;7442;50.840;3.396;2024-03-29T03:06:49;2.17;;;1.00;;
14704;SDS011;7442;50.840;3.396;2024-03-29T03:09:19;2.52;;;0.90;;
14704;SDS011;7442;50.840;3.396;2024-03-29T03:12:07;1.52;;;1.00;;
14704;SDS011;7442;50.840;3.396;2024-03-29T03:14:37;2.17;;;1.02;;
14704;SDS011;7442;50.840;3.396;2024-03-29T03:17:09;2.55;;;0.90;;
14704;SDS011;7442;50.840;3.396;2024-03-29T03:19:39;1.98;;;1.07;;
14704;SDS011;7442;50.840;3.396;2024-03-29T03:22:09;1.95;;;0.90;;
14704;SDS011;7442;50.840;3.396;2024-03-29T03:24:39;1.05;;;0.70;;
14704;SDS011;7442;50.840;3.396;2024-03-29T03:27:09;1.17;;;0.78;;
14704;SDS011;7442;50.840;3.396;2024-03-29T03:29:39;2.05;;;0.93;;
14704;SDS011;7442;50.840;3.396;2024-03-29T03:32:09;1.45;;;0.90;;
14704;SDS011;7442;50.840;3.396;2024-03-29T03:34:39;1.55;;;0.80;;
14704;SDS011;7442;50.840;3.396;2024-03-29T03:37:09;2.20;;;1.07;;
14704;SDS011;7442;50.840;3.396;2024-03-29T03:39:39;2.12;;;0.93;;
14704;SDS011;7442;50.840;3.396;2024-03-29T03:42:09;0.62;;;0.53;;
14704;SDS011;7442;50.840;3.396;2024-03-29T03:44:39;0.98;;;0.68;;
14704;SDS011;7442;50.840;3.396;2024-03-29T03:47:09;1.90;;;1.12;;
14704;SDS011;7442;50.840;3.396;2024-03-29T03:49:40;2.10;;;0.80;;
14704;SDS011;7442;50.840;3.396;2024-03-29T03:52:10;1.62;;;0.72;;
14704;SDS011;7442;50.840;3.396;2024-03-29T03:54:40;2.35;;;0.93;;
14704;SDS011;7442;50.840;3.396;2024-03-29T03:57:10;0.80;;;0.55;;
14704;SDS011;7442;50.840;3.396;2024-03-29T03:59:40;1.90;;;0.70;;
14704;SDS011;7442;50.840;3.396;2024-03-29T04:02:10;0.80;;;0.75;;
14704;SDS011;7442;50.840;3.396;2024-03-29T04:04:40;1.72;;;0.80;;
14704;SDS011;7442;50.840;3.396;2024-03-29T04:07:10;1.60;;;1.00;;
14704;SDS011;7442;50.840;3.396;2024-03-29T04:09:40;2.40;;;0.80;;
14704;SDS011;7442;50.840;3.396;2024-03-29T04:12:10;2.00;;;0.80;;
14704;SDS011;7442;50.840;3.396;2024-03-29T04:14:40;2.83;;;0.68;;
14704;SDS011;7442;50.840;3.396;2024-03-29T04:17:10;1.60;;;0.80;;
14704;SDS011;7442;50.840;3.396;2024-03-29T04:19:41;1.32;;;0.80;;
14704;SDS011;7442;50.840;3.396;2024-03-29T04:22:11;1.20;;;0.75;;
14704;SDS011;7442;50.840;3.396;2024-03-29T04:24:41;0.68;;;0.68;;
14704;SDS011;7442;50.840;3.396;2024-03-29T04:27:11;1.15;;;0.70;;
14704;SDS011;7442;50.840;3.396;2024-03-29T04:29:41;1.37;;;0.70;;
14704;SDS011;7442;50.840;3.396;2024-03-29T04:32:11;2.90;;;1.02;;
14704;SDS011;7442;50.840;3.396;2024-03-29T04:34:42;2.35;;;0.80;;
14704;SDS011;7442;50.840;3.396;2024-03-29T04:37:12;2.92;;;0.60;;
14704;SDS011;7442;50.840;3.396;2024-03-29T04:39:45;1.65;;;0.95;;
14704;SDS011;7442;50.840;3.396;2024-03-29T04:42:16;1.52;;;0.82;;
14704;SDS011;7442;50.840;3.396;2024-03-29T04:44:49;1.57;;;0.95;;
14704;SDS011;7442;50.840;3.396;2024-03-29T04:47:19;1.40;;;0.82;;
14704;SDS011;7442;50.840;3.396;2024-03-29T04:49:49;1.37;;;0.78;;
14704;SDS011;7442;50.840;3.396;2024-03-29T04:52:19;1.40;;;0.88;;
14704;SDS011;7442;50.840;3.396;2024-03-29T04:54:51;1.10;;;0.70;;
14704;SDS011;7442;50.840;3.396;2024-03-29T04:57:22;1.12;;;0.72;;
14704;SDS011;7442;50.840;3.396;2024-03-29T04:59:52;1.30;;;0.80;;
14704;SDS011;7442;50.840;3.396;2024-03-29T05:02:22;1.30;;;0.85;;
14704;SDS011;7442;50.840;3.396;2024-03-29T05:04:54;1.17;;;0.80;;
14704;SDS011;7442;50.840;3.396;2024-03-29T05:07:26;2.65;;;0.68;;
14704;SDS011;7442;50.840;3.396;2024-03-29T05:10:03;1.37;;;0.80;;
14704;SDS011;7442;50.840;3.396;2024-03-29T05:12:41;1.75;;;0.93;;
14704;SDS011;7442;50.840;3.396;2024-03-29T05:15:11;1.15;;;0.80;;
14704;SDS011;7442;50.840;3.396;2024-03-29T05:17:42;1.20;;;0.80;;
14704;SDS011;7442;50.840;3.396;2024-03-29T05:20:12;1.15;;;0.98;;
14704;SDS011;7442;50.840;3.396;2024-03-29T05:22:42;0.90;;;0.57;;
14704;SDS011;7442;50.840;3.396;2024-03-29T05:25:12;0.93;;;0.68;;
14704;SDS011;7442;50.840;3.396;2024-03-29T05:27:42;1.25;;;0.70;;
14704;SDS011;7442;50.840;3.396;2024-03-29T05:30:12;0.80;;;0.53;;
14704;SDS011;7442;50.840;3.396;2024-03-29T05:32:42;1.52;;;0.65;;
14704;SDS011;7442;50.840;3.396;2024-03-29T05:35:12;1.52;;;0.82;;
14704;SDS011;7442;50.840;3.396;2024-03-29T05:37:44;1.40;;;1.00;;
14704;SDS011;7442;50.840;3.396;2024-03-29T05:40:15;1.07;;;0.82;;
14704;SDS011;7442;50.840;3.396;2024-03-29T05:42:45;1.98;;;0.88;;
14704;SDS011;7442;50.840;3.396;2024-03-29T05:45:26;0.95;;;0.75;;
14704;SDS011;7442;50.840;3.396;2024-03-29T05:47:58;1.15;;;1.00;;
14704;SDS011;7442;50.840;3.396;2024-03-29T05:50:28;0.70;;;0.60;;
14704;SDS011;7442;50.840;3.396;2024-03-29T05:52:58;1.52;;;1.02;;
14704;SDS011;7442;50.840;3.396;2024-03-29T05:55:29;1.10;;;0.85;;
14704;SDS011;7442;50.840;3.396;2024-03-29T05:57:59;0.85;;;0.80;;
14704;SDS011;7442;50.840;3.396;2024-03-29T06:00:29;1.42;;;0.98;;
14704;SDS011;7442;50.840;3.396;2024-03-29T06:03:01;2.45;;;1.10;;
14704;SDS011;7442;50.840;3.396;2024-03-29T06:05:31;1.72;;;1.20;;
14704;SDS011;7442;50.840;3.396;2024-03-29T06:08:01;5.25;;;1.30;;
14704;SDS011;7442;50.840;3.396;2024-03-29T06:10:39;4.15;;;1.12;;
14704;SDS011;7442;50.840;3.396;2024-03-29T06:13:09;4.08;;;1.70;;
14704;SDS011;7442;50.840;3.396;2024-03-29T06:15:41;2.40;;;1.05;;
14704;SDS011;7442;50.840;3.396;2024-03-29T06:18:29;4.92;;;1.37;;
14704;SDS011;7442;50.840;3.396;2024-03-29T06:20:59;3.15;;;1.17;;
14704;SDS011;7442;50.840;3.396;2024-03-29T06:23:29;2.47;;;1.45;;
14704;SDS011;7442;50.840;3.396;2024-03-29T06:25:59;3.22;;;1.40;;
14704;SDS011;7442;50.840;3.396;2024-03-29T06:28:29;3.42;;;1.30;;
14704;SDS011;7442;50.840;3.396;2024-03-29T06:30:59;6.25;;;1.52;;
14704;SDS011;7442;50.840;3.396;2024-03-29T06:33:30;2.37;;;1.20;;
14704;SDS011;7442;50.840;3.396;2024-03-29T06:36:00;2.00;;;1.10;;
14704;SDS011;7442;50.840;3.396;2024-03-29T06:38:30;4.25;;;1.52;;
14704;SDS011;7442;50.840;3.396;2024-03-29T06:41:00;7.87;;;1.90;;
14704;SDS011;7442;50.840;3.396;2024-03-29T06:43:31;3.72;;;1.62;;
14704;SDS011;7442;50.840;3.396;2024-03-29T06:46:02;6.12;;;1.92;;
14704;SDS011;7442;50.840;3.396;2024-03-29T06:48:33;3.40;;;2.00;;
14704;SDS011;7442;50.840;3.396;2024-03-29T06:51:04;5.37;;;1.65;;
14704;SDS011;7442;50.840;3.396;2024-03-29T06:53:34;2.17;;;1.32;;
14704;SDS011;7442;50.840;3.396;2024-03-29T06:56:06;3.05;;;1.30;;
14704;SDS011;7442;50.840;3.396;2024-03-29T06:58:37;3.08;;;1.70;;
14704;SDS011;7442;50.840;3.396;2024-03-29T07:01:07;3.40;;;1.90;;
14704;SDS011;7442;50.840;3.396;2024-03-29T07:03:37;3.60;;;1.85;;
14704;SDS011;7442;50.840;3.396;2024-03-29T07:06:07;5.10;;;1.70;;
14704;SDS011;7442;50.840;3.396;2024-03-29T07:08:37;6.65;;;1.82;;
14704;SDS011;7442;50.840;3.396;2024-03-29T07:11:07;10.80;;;1.80;;
14704;SDS011;7442;50.840;3.396;2024-03-29T07:13:44;4.47;;;1.85;;
14704;SDS011;7442;50.840;3.396;2024-03-29T07:16:14;4.42;;;1.82;;
14704;SDS011;7442;50.840;3.396;2024-03-29T07:18:44;4.60;;;1.80;;
14704;SDS011;7442;50.840;3.396;2024-03-29T07:21:14;3.98;;;1.87;;
14704;SDS011;7442;50.840;3.396;2024-03-29T07:23:46;3.42;;;1.85;;
14704;SDS011;7442;50.840;3.396;2024-03-29T07:26:17;6.78;;;1.77;;
14704;SDS011;7442;50.840;3.396;2024-03-29T07:28:47;3.40;;;1.75;;
14704;SDS011;7442;50.840;3.396;2024-03-29T07:31:23;4.80;;;1.77;;
14704;SDS011;7442;50.840;3.396;2024-03-29T07:33:53;10.40;;;2.87;;
14704;SDS011;7442;50.840;3.396;2024-03-29T07:36:23;8.03;;;2.12;;
14704;SDS011;7442;50.840;3.396;2024-03-29T07:38:55;5.75;;;2.05;;
14704;SDS011;7442;50.840;3.396;2024-03-29T07:41:27;7.65;;;2.05;;
14704;SDS011;7442;50.840;3.396;2024-03-29T07:43:57;10.38;;;2.70;;
14704;SDS011;7442;50.840;3.396;2024-03-29T07:46:32;7.97;;;2.23;;
14704;SDS011;7442;50.840;3.396;2024-03-29T07:49:03;6.83;;;2.20;;
14704;SDS011;7442;50.840;3.396;2024-03-29T07:51:34;7.85;;;2.37;;
14704;SDS011;7442;50.840;3.396;2024-03-29T07:54:04;9.10;;;2.35;;
14704;SDS011;7442;50.840;3.396;2024-03-29T07:56:34;8.50;;;2.27;;
14704;SDS011;7442;50.840;3.396;2024-03-29T07:59:04;7.87;;;1.80;;
14704;SDS011;7442;50.840;3.396;2024-03-29T08:01:34;6.22;;;2.30;;
14704;SDS011;7442;50.840;3.396;2024-03-29T08:04:04;9.05;;;2.60;;
14704;SDS011;7442;50.840;3.396;2024-03-29T08:06:36;9.88;;;2.27;;
14704;SDS011;7442;50.840;3.396;2024-03-29T08:09:06;9.45;;;2.35;;
14704;SDS011;7442;50.840;3.396;2024-03-29T08:11:38;11.00;;;2.37;;
14704;SDS011;7442;50.840;3.396;2024-03-29T08:14:08;14.25;;;2.33;;
14704;SDS011;7442;50.840;3.396;2024-03-29T08:16:38;8.08;;;2.25;;
14704;SDS011;7442;50.840;3.396;2024-03-29T08:19:08;14.53;;;2.60;;
14704;SDS011;7442;50.840;3.396;2024-03-29T08:21:39;15.72;;;3.02;;
14704;SDS011;7442;50.840;3.396;2024-03-29T08:24:09;11.20;;;2.62;;
14704;SDS011;7442;50.840;3.396;2024-03-29T08:26:39;11.10;;;3.72;;
14704;SDS011;7442;50.840;3.396;2024-03-29T08:29:09;8.85;;;2.42;;
14704;SDS011;7442;50.840;3.396;2024-03-29T08:31:39;5.72;;;2.30;;
14704;SDS011;7442;50.840;3.396;2024-03-29T08:34:09;7.58;;;2.33;;
14704;SDS011;7442;50.840;3.396;2024-03-29T08:36:41;9.48;;;2.22;;
14704;SDS011;7442;50.840;3.396;2024-03-29T08:39:11;6.40;;;2.65;;
14704;SDS011;7442;50.840;3.396;2024-03-29T08:41:41;12.45;;;2.27;;
14704;SDS011;7442;50.840;3.396;2024-03-29T08:44:12;8.70;;;2.35;;
14704;SDS011;7442;50.840;3.396;2024-03-29T08:46:44;7.60;;;2.35;;
14704;SDS011;7442;50.840;3.396;2024-03-29T08:49:14;13.10;;;2.55;;
14704;SDS011;7442;50.840;3.396;2024-03-29T08:51:44;7.47;;;2.12;;
14704;SDS011;7442;50.840;3.396;2024-03-29T08:54:14;12.47;;;2.35;;
14704;SDS011;7442;50.840;3.396;2024-03-29T08:56:44;7.67;;;2.05;;
14704;SDS011;7442;50.840;3.396;2024-03-29T08:59:14;7.75;;;2.00;;
14704;SDS011;7442;50.840;3.396;2024-03-29T09:01:45;8.60;;;2.17;;
14704;SDS011;7442;50.840;3.396;2024-03-29T09:04:17;4.97;;;2.00;;
14704;SDS011;7442;50.840;3.396;2024-03-29T09:06:48;7.03;;;2.02;;
14704;SDS011;7442;50.840;3.396;2024-03-29T09:09:18;11.22;;;2.47;;
14704;SDS011;7442;50.840;3.396;2024-03-29T09:11:48;10.70;;;2.15;;
14704;SDS011;7442;50.840;3.396;2024-03-29T09:14:18;6.28;;;2.00;;
14704;SDS011;7442;50.840;3.396;2024-03-29T09:16:48;4.58;;;1.87;;
14704;SDS011;7442;50.840;3.396;2024-03-29T09:19:18;3.70;;;2.10;;
14704;SDS011;7442;50.840;3.396;2024-03-29T09:21:48;4.67;;;1.90;;
14704;SDS011;7442;50.840;3.396;2024-03-29T09:24:20;11.28;;;2.10;;
14704;SDS011;7442;50.840;3.396;2024-03-29T09:26:51;7.58;;;2.33;;
14704;SDS011;7442;50.840;3.396;2024-03-29T09:29:21;9.05;;;2.02;;
14704;SDS011;7442;50.840;3.396;2024-03-29T09:31:51;6.35;;;1.85;;
14704;SDS011;7442;50.840;3.396;2024-03-29T09:34:21;10.48;;;2.45;;
14704;SDS011;7442;50.840;3.396;2024-03-29T09:36:51;13.55;;;2.90;;
14704;SDS011;7442;50.840;3.396;2024-03-29T09:39:21;13.55;;;2.80;;
14704;SDS011;7442;50.840;3.396;2024-03-29T09:41:51;10.25;;;2.50;;
14704;SDS011;7442;50.840;3.396;2024-03-29T09:44:24;12.43;;;3.00;;
14704;SDS011;7442;50.840;3.396;2024-03-29T09:46:57;17.02;;;2.67;;
14704;SDS011;7442;50.840;3.396;2024-03-29T09:49:33;21.15;;;3.22;;
14704;SDS011;7442;50.840;3.396;2024-03-29T09:52:04;12.30;;;2.58;;
14704;SDS011;7442;50.840;3.396;2024-03-29T09:54:34;14.50;;;3.22;;
14704;SDS011;7442;50.840;3.396;2024-03-29T09:57:05;27.07;;;3.60;;
14704;SDS011;7442;50.840;3.396;2024-03-29T09:59:35;24.10;;;3.22;;
14704;SDS011;7442;50.840;3.396;2024-03-29T10:02:16;26.00;;;3.87;;
14704;SDS011;7442;50.840;3.396;2024-03-29T10:04:39;18.57;;;3.50;;
14704;SDS011;7442;50.840;3.396;2024-03-29T10:07:10;14.05;;;3.35;;
14704;SDS011;7442;50.840;3.396;2024-03-29T10:09:42;23.52;;;3.27;;
14704;SDS011;7442;50.840;3.396;2024-03-29T10:12:13;15.58;;;3.22;;
14704;SDS011;7442;50.840;3.396;2024-03-29T10:14:47;10.28;;;2.90;;
14704;SDS011;7442;50.840;3.396;2024-03-29T10:17:18;17.07;;;4.20;;
14704;SDS011;7442;50.840;3.396;2024-03-29T10:19:49;15.93;;;3.45;;
14704;SDS011;7442;50.840;3.396;2024-03-29T10:22:19;8.55;;;3.08;;
14704;SDS011;7442;50.840;3.396;2024-03-29T10:24:49;13.55;;;2.85;;
14704;SDS011;7442;50.840;3.396;2024-03-29T10:27:19;16.32;;;3.47;;
14704;SDS011;7442;50.840;3.396;2024-03-29T10:29:51;11.70;;;2.60;;
14704;SDS011;7442;50.840;3.396;2024-03-29T10:32:23;18.82;;;3.37;;
14704;SDS011;7442;50.840;3.396;2024-03-29T10:34:54;15.88;;;3.35;;
14704;SDS011;7442;50.840;3.396;2024-03-29T10:37:24;25.82;;;3.35;;
14704;SDS011;7442;50.840;3.396;2024-03-29T10:39:56;23.95;;;4.05;;
14704;SDS011;7442;50.840;3.396;2024-03-29T10:42:26;8.38;;;2.20;;
14704;SDS011;7442;50.840;3.396;2024-03-29T10:44:57;8.20;;;2.27;;
14704;SDS011;7442;50.840;3.396;2024-03-29T10:47:28;8.45;;;2.10;;
14704;SDS011;7442;50.840;3.396;2024-03-29T10:49:59;15.55;;;2.67;;
14704;SDS011;7442;50.840;3.396;2024-03-29T10:52:32;6.58;;;1.90;;
14704;SDS011;7442;50.840;3.396;2024-03-29T10:55:04;9.48;;;2.08;;
14704;SDS011;7442;50.840;3.396;2024-03-29T10:57:39;10.85;;;2.22;;
14704;SDS011;7442;50.840;3.396;2024-03-29T11:00:13;4.25;;;2.00;;
14704;SDS011;7442;50.840;3.396;2024-03-29T11:03:37;7.30;;;2.30;;
14704;SDS011;7442;50.840;3.396;2024-03-29T11:05:26;12.37;;;2.22;;
14704;SDS011;7442;50.840;3.396;2024-03-29T11:08:00;15.18;;;2.72;;
14704;SDS011;7442;50.840;3.396;2024-03-29T11:10:41;11.80;;;2.47;;
14704;SDS011;7442;50.840;3.396;2024-03-29T11:13:19;3.92;;;1.70;;
14704;SDS011;7442;50.840;3.396;2024-03-29T11:16:05;7.55;;;2.47;;
14704;SDS011;7442;50.840;3.396;2024-03-29T11:18:36;7.25;;;2.47;;
14704;SDS011;7442;50.840;3.396;2024-03-29T11:21:07;5.83;;;2.10;;
14704;SDS011;7442;50.840;3.396;2024-03-29T11:23:39;5.83;;;2.12;;
14704;SDS011;7442;50.840;3.396;2024-03-29T11:26:09;6.20;;;2.30;;
14704;SDS011;7442;50.840;3.396;2024-03-29T11:28:39;4.90;;;2.00;;
14704;SDS011;7442;50.840;3.396;2024-03-29T11:31:13;9.48;;;2.10;;
14704;SDS011;7442;50.840;3.396;2024-03-29T11:33:46;3.58;;;2.00;;
14704;SDS011;7442;50.840;3.396;2024-03-29T11:36:23;4.10;;;1.82;;
14704;SDS011;7442;50.840;3.396;2024-03-29T11:38:56;3.50;;;1.70;;
14704;SDS011;7442;50.840;3.396;2024-03-29T11:41:27;4.37;;;2.10;;
14704;SDS011;7442;50.840;3.396;2024-03-29T11:44:01;8.53;;;2.10;;
14704;SDS011;7442;50.840;3.396;2024-03-29T11:46:31;6.70;;;2.60;;
14704;SDS011;7442;50.840;3.396;2024-03-29T11:49:03;12.88;;;2.62;;
14704;SDS011;7442;50.840;3.396;2024-03-29T11:51:34;5.55;;;2.08;;
14704;SDS011;7442;50.840;3.396;2024-03-29T11:54:04;8.25;;;2.02;;
14704;SDS011;7442;50.840;3.396;2024-03-29T11:56:34;5.42;;;1.90;;
14704;SDS011;7442;50.840;3.396;2024-03-29T11:59:05;13.05;;;2.15;;
14704;SDS011;7442;50.840;3.396;2024-03-29T12:01:36;16.07;;;2.50;;
14704;SDS011;7442;50.840;3.396;2024-03-29T12:04:08;5.15;;;2.27;;
14704;SDS011;7442;50.840;3.396;2024-03-29T12:06:38;5.20;;;2.22;;
14704;SDS011;7442;50.840;3.396;2024-03-29T12:09:09;10.15;;;2.08;;
14704;SDS011;7442;50.840;3.396;2024-03-29T12:11:39;4.22;;;1.65;;
14704;SDS011;7442;50.840;3.396;2024-03-29T12:14:12;7.97;;;1.72;;
14704;SDS011;7442;50.840;3.396;2024-03-29T12:16:43;11.90;;;1.75;;
14704;SDS011;7442;50.840;3.396;2024-03-29T12:19:25;13.20;;;2.05;;
14704;SDS011;7442;50.840;3.396;2024-03-29T12:21:59;24.12;;;2.60;;
14704;SDS011;7442;50.840;3.396;2024-03-29T12:24:29;13.13;;;2.08;;
14704;SDS011;7442;50.840;3.396;2024-03-29T12:27:00;11.35;;;2.90;;
14704;SDS011;7442;50.840;3.396;2024-03-29T12:29:33;5.83;;;1.95;;
14704;SDS011;7442;50.840;3.396;2024-03-29T12:32:04;13.60;;;2.33;;
14704;SDS011;7442;50.840;3.396;2024-03-29T12:34:34;16.20;;;2.42;;
14704;SDS011;7442;50.840;3.396;2024-03-29T12:37:04;5.92;;;1.65;;
14704;SDS011;7442;50.840;3.396;2024-03-29T12:39:34;4.83;;;1.75;;
14704;SDS011;7442;50.840;3.396;2024-03-29T12:42:06;15.03;;;2.10;;
14704;SDS011;7442;50.840;3.396;2024-03-29T12:44:36;12.58;;;1.98;;
14704;SDS011;7442;50.840;3.396;2024-03-29T12:47:06;12.20;;;2.55;;
14704;SDS011;7442;50.840;3.396;2024-03-29T12:49:39;12.43;;;2.70;;
14704;SDS011;7442;50.840;3.396;2024-03-29T12:52:11;12.30;;;2.10;;
14704;SDS011;7442;50.840;3.396;2024-03-29T12:54:41;16.00;;;2.30;;
14704;SDS011;7442;50.840;3.396;2024-03-29T12:57:11;15.75;;;2.40;;
14704;SDS011;7442;50.840;3.396;2024-03-29T12:59:41;14.25;;;3.02;;
14704;SDS011;7442;50.840;3.396;2024-03-29T13:02:14;14.10;;;2.50;;
14704;SDS011;7442;50.840;3.396;2024-03-29T13:04:44;12.37;;;2.05;;
14704;SDS011;7442;50.840;3.396;2024-03-29T13:07:14;14.43;;;2.70;;
14704;SDS011;7442;50.840;3.396;2024-03-29T13:09:44;6.72;;;2.02;;
14704;SDS011;7442;50.840;3.396;2024-03-29T13:12:14;22.65;;;2.98;;
14704;SDS011;7442;50.840;3.396;2024-03-29T13:14:44;12.68;;;2.15;;
14704;SDS011;7442;50.840;3.396;2024-03-29T13:17:14;17.52;;;2.55;;
14704;SDS011;7442;50.840;3.396;2024-03-29T13:19:44;20.72;;;2.70;;
14704;SDS011;7442;50.840;3.396;2024-03-29T13:22:14;9.98;;;2.00;;
14704;SDS011;7442;50.840;3.396;2024-03-29T13:24:46;11.28;;;2.08;;
14704;SDS011;7442;50.840;3.396;2024-03-29T13:27:16;30.35;;;4.12;;
14704;SDS011;7442;50.840;3.396;2024-03-29T13:29:46;16.93;;;2.08;;
14704;SDS011;7442;50.840;3.396;2024-03-29T13:32:17;31.68;;;2.98;;
14704;SDS011;7442;50.840;3.396;2024-03-29T13:34:47;26.15;;;2.08;;
14704;SDS011;7442;50.840;3.396;2024-03-29T13:37:18;19.00;;;3.17;;
14704;SDS011;7442;50.840;3.396;2024-03-29T13:39:48;13.25;;;1.90;;
14704;SDS011;7442;50.840;3.396;2024-03-29T13:42:18;17.92;;;3.08;;
14704;SDS011;7442;50.840;3.396;2024-03-29T13:44:49;17.87;;;2.52;;
14704;SDS011;7442;50.840;3.396;2024-03-29T13:47:20;13.53;;;2.15;;
14704;SDS011;7442;50.840;3.396;2024-03-29T13:49:50;22.22;;;2.20;;
14704;SDS011;7442;50.840;3.396;2024-03-29T13:52:22;17.73;;;1.92;;
14704;SDS011;7442;50.840;3.396;2024-03-29T13:54:52;11.70;;;1.80;;
14704;SDS011;7442;50.840;3.396;2024-03-29T13:57:23;13.05;;;1.75;;
14704;SDS011;7442;50.840;3.396;2024-03-29T13:59:53;13.65;;;2.27;;
14704;SDS011;7442;50.840;3.396;2024-03-29T14:02:23;12.30;;;1.82;;
14704;SDS011;7442;50.840;3.396;2024-03-29T14:04:55;13.83;;;2.30;;
14704;SDS011;7442;50.840;3.396;2024-03-29T14:07:25;19.50;;;2.67;;
14704;SDS011;7442;50.840;3.396;2024-03-29T14:09:56;14.00;;;2.08;;
14704;SDS011;7442;50.840;3.396;2024-03-29T14:12:27;16.00;;;2.27;;
14704;SDS011;7442;50.840;3.396;2024-03-29T14:14:57;17.40;;;2.35;;
14704;SDS011;7442;50.840;3.396;2024-03-29T14:17:29;15.78;;;2.80;;
14704;SDS011;7442;50.840;3.396;2024-03-29T14:19:59;14.18;;;2.20;;
14704;SDS011;7442;50.840;3.396;2024-03-29T14:22:29;7.15;;;2.15;;
14704;SDS011;7442;50.840;3.396;2024-03-29T14:25:00;7.47;;;1.80;;
14704;SDS011;7442;50.840;3.396;2024-03-29T14:27:38;13.53;;;2.20;;
14704;SDS011;7442;50.840;3.396;2024-03-29T14:30:10;10.45;;;1.70;;
14704;SDS011;7442;50.840;3.396;2024-03-29T14:32:45;10.82;;;2.00;;
14704;SDS011;7442;50.840;3.396;2024-03-29T14:35:14;15.63;;;1.60;;
14704;SDS011;7442;50.840;3.396;2024-03-29T14:37:45;7.95;;;1.40;;
14704;SDS011;7442;50.840;3.396;2024-03-29T14:40:15;10.10;;;1.52;;
14704;SDS011;7442;50.840;3.396;2024-03-29T14:42:46;10.55;;;1.90;;
14704;SDS011;7442;50.840;3.396;2024-03-29T14:45:16;8.25;;;1.72;;
14704;SDS011;7442;50.840;3.396;2024-03-29T14:47:47;17.52;;;2.98;;
14704;SDS011;7442;50.840;3.396;2024-03-29T14:50:18;15.25;;;2.27;;
14704;SDS011;7442;50.840;3.396;2024-03-29T14:52:48;16.37;;;2.35;;
14704;SDS011;7442;50.840;3.396;2024-03-29T14:55:18;22.40;;;3.17;;
14704;SDS011;7442;50.840;3.396;2024-03-29T14:57:48;15.28;;;2.20;;
14704;SDS011;7442;50.840;3.396;2024-03-29T15:00:20;18.27;;;2.55;;
14704;SDS011;7442;50.840;3.396;2024-03-29T15:02:51;14.58;;;1.85;;
14704;SDS011;7442;50.840;3.396;2024-03-29T15:05:23;13.85;;;2.17;;
14704;SDS011;7442;50.840;3.396;2024-03-29T15:07:56;5.67;;;1.55;;
14704;SDS011;7442;50.840;3.396;2024-03-29T15:10:27;9.45;;;1.47;;
14704;SDS011;7442;50.840;3.396;2024-03-29T15:12:57;8.30;;;1.47;;
14704;SDS011;7442;50.840;3.396;2024-03-29T15:15:27;10.18;;;1.42;;
14704;SDS011;7442;50.840;3.396;2024-03-29T15:17:57;3.62;;;1.20;;
14704;SDS011;7442;50.840;3.396;2024-03-29T15:20:27;9.08;;;1.37;;
14704;SDS011;7442;50.840;3.396;2024-03-29T15:22:57;8.33;;;1.52;;